createdAt,value
2022-12-11T00:02:50.724Z,1.17
2022-12-11T00:07:58.055Z,1.14
2022-12-11T00:13:05.443Z,1.11
2022-12-11T00:18:15.724Z,1.08
2022-12-11T00:23:22.902Z,1.05
2022-12-11T00:28:30.021Z,1.04
2022-12-11T00:33:37.102Z,1.04
2022-12-11T00:38:45.009Z,1.02
2022-12-11T00:43:52.582Z,1.03
2022-12-11T00:49:00.435Z,1.04
2022-12-11T00:54:08.101Z,1.06
2022-12-11T00:59:15.281Z,1.07
2022-12-11T01:04:22.449Z,1.08
2022-12-11T01:09:46.608Z,1.09
2022-12-11T01:14:53.868Z,1.09
2022-12-11T01:20:01.019Z,1.09
2022-12-11T01:25:10.068Z,1.09
2022-12-11T01:30:18.187Z,1.08
2022-12-11T01:35:25.389Z,1.07
2022-12-11T01:40:33.221Z,1.06
2022-12-11T01:45:45.158Z,1.05
2022-12-11T01:50:55.879Z,1.03
2022-12-11T01:56:04.419Z,1.01
2022-12-11T02:01:16.660Z,1.00
2022-12-11T02:06:36.601Z,0.98
2022-12-11T02:11:55.027Z,0.96
2022-12-11T02:17:07.232Z,0.94
2022-12-11T02:22:15.706Z,0.92
2022-12-11T02:27:37.706Z,0.91
2022-12-11T02:32:50.900Z,0.89
2022-12-11T02:38:03.319Z,0.87
2022-12-11T02:43:13.348Z,0.86
2022-12-11T02:48:22.426Z,0.84
2022-12-11T02:53:32.862Z,0.82
2022-12-11T02:58:44.820Z,0.80
2022-12-11T03:03:52.146Z,0.77
2022-12-11T03:08:59.341Z,0.75
2022-12-11T03:14:07.262Z,0.73
2022-12-11T03:19:23.886Z,0.71
2022-12-11T03:24:38.967Z,0.69
2022-12-11T03:29:55.802Z,0.68
2022-12-11T03:35:07.128Z,0.67
2022-12-11T03:40:19.347Z,0.67
2022-12-11T03:45:30.628Z,0.66
2022-12-11T03:50:38.987Z,0.66
2022-12-11T03:55:47.709Z,0.66
2022-12-11T04:00:54.870Z,0.66
2022-12-11T04:06:01.979Z,0.67
2022-12-11T04:11:28.500Z,0.67
2022-12-11T04:16:35.751Z,0.69
2022-12-11T04:21:59.748Z,0.69
2022-12-11T04:27:07.099Z,0.70
2022-12-11T04:32:14.179Z,0.70
2022-12-11T04:37:21.386Z,0.72
2022-12-11T04:42:28.588Z,0.73
2022-12-11T04:47:36.199Z,0.74
2022-12-11T04:52:43.541Z,0.74
2022-12-11T04:57:50.570Z,0.73
2022-12-11T05:02:57.711Z,0.72
2022-12-11T05:08:05.688Z,0.71
2022-12-11T05:13:12.859Z,0.68
2022-12-11T05:18:20.340Z,0.66
2022-12-11T05:23:27.548Z,0.63
2022-12-11T05:28:36.509Z,0.61
2022-12-11T05:33:43.581Z,0.60
2022-12-11T05:38:51.191Z,0.57
2022-12-11T05:43:58.461Z,0.55
2022-12-11T05:49:06.159Z,0.53
2022-12-11T05:54:13.667Z,0.52
2022-12-11T05:59:21.431Z,0.49
2022-12-11T06:04:28.589Z,0.47
2022-12-11T06:09:35.701Z,0.46
2022-12-11T06:14:42.920Z,0.45
2022-12-11T06:19:50.065Z,0.43
2022-12-11T06:24:57.301Z,0.42
2022-12-11T06:30:04.625Z,0.41
2022-12-11T06:35:13.058Z,0.40
2022-12-11T06:40:21.201Z,0.39
2022-12-11T06:45:28.369Z,0.38
2022-12-11T06:50:35.748Z,0.37
2022-12-11T06:55:43.907Z,0.36
2022-12-11T07:00:50.993Z,0.35
2022-12-11T07:06:01.201Z,0.33
2022-12-11T07:11:10.518Z,0.31
2022-12-11T07:16:19.331Z,0.29
2022-12-11T07:21:26.586Z,0.28
2022-12-11T07:26:33.862Z,0.27
2022-12-11T07:31:41.065Z,0.25
2022-12-11T07:36:48.300Z,0.22
2022-12-11T07:41:55.630Z,0.20
2022-12-11T07:47:02.941Z,0.19
2022-12-11T07:52:10.540Z,0.16
2022-12-11T07:57:18.359Z,0.15
2022-12-11T08:02:25.598Z,0.14
2022-12-11T08:07:32.780Z,0.14
2022-12-11T08:12:39.910Z,0.13
2022-12-11T08:17:47.067Z,0.13
2022-12-11T08:22:58.924Z,0.12
2022-12-11T08:28:04.679Z,0.11
2022-12-11T08:33:12.159Z,0.11
2022-12-11T08:38:25.011Z,0.11
2022-12-11T08:43:32.587Z,0.12
2022-12-11T08:48:41.260Z,0.12
2022-12-11T08:53:48.761Z,0.12
2022-12-11T08:58:56.370Z,0.13
2022-12-11T09:04:03.509Z,0.13
2022-12-11T09:09:10.867Z,0.13
2022-12-11T09:14:18.048Z,0.14
2022-12-11T09:19:30.611Z,0.14
2022-12-11T09:24:39.508Z,0.14
2022-12-11T09:29:46.791Z,0.13
2022-12-11T09:34:55.627Z,0.13
2022-12-11T09:40:07.509Z,0.12
2022-12-11T09:45:18.478Z,0.12
2022-12-11T09:50:28.584Z,0.11
2022-12-11T09:55:44.985Z,0.12
2022-12-11T10:00:57.759Z,0.12
2022-12-11T10:06:09.580Z,0.13
2022-12-11T10:11:36.041Z,0.13
2022-12-11T10:16:46.261Z,0.15
2022-12-11T10:21:54.704Z,0.15
2022-12-11T10:27:13.260Z,0.16
2022-12-11T10:32:26.721Z,0.17
2022-12-11T10:37:34.362Z,0.18
2022-12-11T10:42:45.656Z,0.19
2022-12-11T10:48:03.383Z,0.21
2022-12-11T10:53:21.901Z,0.21
2022-12-11T10:58:34.545Z,0.23
2022-12-11T11:03:55.981Z,0.24
2022-12-11T11:09:04.191Z,0.25
2022-12-11T11:14:19.350Z,0.27
2022-12-11T11:19:31.308Z,0.29
2022-12-11T11:24:41.810Z,0.31
2022-12-11T11:29:53.153Z,0.33
2022-12-11T11:35:19.801Z,0.35
2022-12-11T11:53:53.196Z,0.79
2022-12-11T11:59:15.982Z,0.95
2022-12-11T12:04:23.685Z,1.11
2022-12-11T12:09:45.462Z,1.20
2022-12-11T12:15:09.241Z,1.29
2022-12-11T12:20:30.507Z,1.36
2022-12-11T12:25:43.922Z,1.41
2022-12-11T12:31:06.385Z,1.44
2022-12-11T12:36:17.275Z,1.48
2022-12-11T12:41:30.626Z,1.50
2022-12-11T12:46:57.175Z,1.54
2022-12-11T12:52:08.367Z,1.56
2022-12-11T12:57:16.779Z,1.58
2022-12-11T13:02:24.375Z,1.59
2022-12-11T13:07:34.725Z,1.60
2022-12-11T13:12:49.157Z,1.60
2022-12-11T13:17:56.974Z,1.60
2022-12-11T13:23:31.541Z,1.61
2022-12-11T13:28:52.245Z,1.62
2022-12-11T13:34:05.871Z,1.62
2022-12-11T13:39:23.060Z,1.64
2022-12-11T13:44:33.342Z,1.65
2022-12-11T13:49:44.373Z,1.65
2022-12-11T13:54:55.999Z,1.66
2022-12-11T14:00:03.831Z,1.66
2022-12-11T14:05:15.962Z,1.66
2022-12-11T14:10:26.589Z,1.66
2022-12-11T14:15:35.752Z,1.66
2022-12-11T14:20:43.322Z,1.67
2022-12-11T14:25:59.191Z,1.67
2022-12-11T14:31:08.474Z,1.67
2022-12-11T14:36:18.666Z,1.68
2022-12-11T14:41:31.004Z,1.67
2022-12-11T14:46:44.860Z,1.67
2022-12-11T14:51:55.619Z,1.67
2022-12-11T14:57:08.043Z,1.66
2022-12-11T15:02:28.696Z,1.64
2022-12-11T15:07:36.760Z,1.64
2022-12-11T15:12:49.295Z,1.64
2022-12-11T15:17:56.975Z,1.63
2022-12-11T15:23:05.009Z,1.62
2022-12-11T15:28:33.034Z,1.61
2022-12-11T15:33:49.390Z,1.59
2022-12-11T15:38:56.950Z,1.59
2022-12-11T15:44:05.930Z,1.58
2022-12-11T15:49:15.885Z,1.57
2022-12-11T15:54:23.360Z,1.56
2022-12-11T15:59:31.296Z,1.54
2022-12-11T16:04:39.004Z,1.53
2022-12-11T16:09:46.450Z,1.52
2022-12-11T16:14:54.310Z,1.50
2022-12-11T16:20:01.736Z,1.48
2022-12-11T16:25:10.563Z,1.47
2022-12-11T16:30:19.110Z,1.45
2022-12-11T16:35:26.912Z,1.42
2022-12-11T16:40:34.815Z,1.40
2022-12-11T16:45:42.434Z,1.38
2022-12-11T16:50:51.388Z,1.37
2022-12-11T16:55:58.848Z,1.34
2022-12-11T17:01:14.425Z,1.32
2022-12-11T17:06:22.287Z,1.31
2022-12-11T17:11:29.743Z,1.30
2022-12-11T17:16:37.224Z,1.28
2022-12-11T17:21:51.157Z,1.27
2022-12-11T17:27:00.368Z,1.26
2022-12-11T17:32:08.086Z,1.25
2022-12-11T17:37:15.701Z,1.24
2022-12-11T17:42:23.008Z,1.24
2022-12-11T17:47:30.413Z,1.24
2022-12-11T17:52:44.026Z,1.24
2022-12-11T17:57:52.173Z,1.24
2022-12-11T18:02:59.792Z,1.25
2022-12-11T18:08:08.164Z,1.25
2022-12-11T18:13:15.674Z,1.26
2022-12-11T18:18:23.264Z,1.27
2022-12-11T18:23:31.374Z,1.27
2022-12-11T18:28:38.797Z,1.27
2022-12-11T18:33:47.784Z,1.27
2022-12-11T18:38:55.186Z,1.28
2022-12-11T18:44:09.334Z,1.28
2022-12-11T18:49:17.330Z,1.29
2022-12-11T18:54:24.807Z,1.29
2022-12-11T18:59:32.367Z,1.29
2022-12-11T19:04:39.848Z,1.29
2022-12-11T19:09:48.448Z,1.29
2022-12-11T19:14:56.410Z,1.29
2022-12-11T19:20:19.049Z,1.28
2022-12-11T19:25:31.704Z,1.29
2022-12-11T19:30:43.285Z,1.29
2022-12-11T19:36:01.927Z,1.29
2022-12-11T19:41:14.324Z,1.30
2022-12-11T19:46:22.684Z,1.30
2022-12-11T19:51:34.104Z,1.29
2022-12-11T19:56:41.816Z,1.28
2022-12-11T20:01:49.831Z,1.28
2022-12-11T20:06:57.244Z,1.27
2022-12-11T20:12:07.064Z,1.28
2022-12-11T20:17:15.259Z,1.27
2022-12-11T20:22:22.732Z,1.27
2022-12-11T20:27:30.137Z,1.27
2022-12-11T20:32:37.697Z,1.27
2022-12-11T20:37:45.593Z,1.27
2022-12-11T20:42:53.038Z,1.27
2022-12-11T20:48:00.366Z,1.28
2022-12-11T20:53:07.699Z,1.27
2022-12-11T20:58:15.187Z,1.28
2022-12-11T21:03:22.698Z,1.28
2022-12-11T21:08:30.410Z,1.29
2022-12-11T21:13:38.560Z,1.29
2022-12-11T21:18:47.063Z,1.31
2022-12-11T21:23:54.702Z,1.31
2022-12-11T21:29:02.515Z,1.32
2022-12-11T21:34:11.083Z,1.34
2022-12-11T21:39:18.619Z,1.34
2022-12-11T21:45:37.131Z,1.36
2022-12-11T21:49:53.948Z,1.36
2022-12-11T21:55:01.248Z,1.37
2022-12-11T22:00:10.538Z,1.38
2022-12-11T22:05:20.602Z,1.40
2022-12-11T22:10:29.739Z,1.41
2022-12-11T22:15:37.698Z,1.44
2022-12-11T22:20:45.508Z,1.45
2022-12-11T22:25:55.009Z,1.46
2022-12-11T22:31:02.754Z,1.48
2022-12-11T22:36:11.978Z,1.49
2022-12-11T22:41:25.217Z,1.51
2022-12-11T22:46:33.389Z,1.51
2022-12-11T22:51:41.241Z,1.52
2022-12-11T22:56:48.778Z,1.54
2022-12-11T23:01:56.487Z,1.55
2022-12-11T23:07:04.881Z,1.57
2022-12-11T23:12:13.168Z,1.58
2022-12-11T23:17:21.007Z,1.59
2022-12-11T23:22:28.412Z,1.61
2022-12-11T23:27:36.775Z,1.63
2022-12-11T23:32:44.104Z,1.65
2022-12-11T23:37:51.762Z,1.67
2022-12-11T23:42:59.121Z,1.69
2022-12-11T23:48:06.652Z,1.71
2022-12-11T23:53:14.535Z,1.73
2022-12-11T23:58:22.034Z,1.74
